sensor_id;sensor_type;location;lat;lon;timestamp;P1;durP1;ratioP1;P2;durP2;ratioP2
1366;SDS011;16877;48.810;9.282;2023-08-17T00:02:10;4.63;;;3.60;;
1366;SDS011;16877;48.810;9.282;2023-08-17T00:04:39;6.03;;;4.40;;
1366;SDS011;16877;48.810;9.282;2023-08-17T00:07:07;3.57;;;3.00;;
1366;SDS011;16877;48.810;9.282;2023-08-17T00:09:34;3.70;;;3.03;;
1366;SDS011;16877;48.810;9.282;2023-08-17T00:12:04;3.70;;;3.30;;
1366;SDS011;16877;48.810;9.282;2023-08-17T00:14:32;4.17;;;3.40;;
1366;SDS011;16877;48.810;9.282;2023-08-17T00:17:00;4.67;;;3.63;;
1366;SDS011;16877;48.810;9.282;2023-08-17T00:19:28;4.23;;;3.30;;
1366;SDS011;16877;48.810;9.282;2023-08-17T00:21:57;3.50;;;2.90;;
1366;SDS011;16877;48.810;9.282;2023-08-17T00:24:24;4.20;;;3.33;;
1366;SDS011;16877;48.810;9.282;2023-08-17T00:26:52;4.30;;;3.27;;
1366;SDS011;16877;48.810;9.282;2023-08-17T00:29:21;4.70;;;3.33;;
1366;SDS011;16877;48.810;9.282;2023-08-17T00:31:48;4.43;;;3.03;;
1366;SDS011;16877;48.810;9.282;2023-08-17T00:34:16;4.80;;;3.77;;
1366;SDS011;16877;48.810;9.282;2023-08-17T00:36:43;4.27;;;3.33;;
1366;SDS011;16877;48.810;9.282;2023-08-17T00:39:11;4.17;;;3.10;;
1366;SDS011;16877;48.810;9.282;2023-08-17T00:41:39;8.13;;;3.30;;
1366;SDS011;16877;48.810;9.282;2023-08-17T00:44:07;4.17;;;3.30;;
1366;SDS011;16877;48.810;9.282;2023-08-17T00:46:36;5.17;;;4.07;;
1366;SDS011;16877;48.810;9.282;2023-08-17T00:49:04;4.90;;;3.60;;
1366;SDS011;16877;48.810;9.282;2023-08-17T00:51:31;10.73;;;4.10;;
1366;SDS011;16877;48.810;9.282;2023-08-17T00:54:00;4.50;;;3.73;;
1366;SDS011;16877;48.810;9.282;2023-08-17T00:56:28;4.60;;;3.70;;
1366;SDS011;16877;48.810;9.282;2023-08-17T00:58:56;4.50;;;3.20;;
1366;SDS011;16877;48.810;9.282;2023-08-17T01:01:23;4.63;;;3.60;;
1366;SDS011;16877;48.810;9.282;2023-08-17T01:03:51;5.20;;;3.50;;
1366;SDS011;16877;48.810;9.282;2023-08-17T01:06:19;4.23;;;3.83;;
1366;SDS011;16877;48.810;9.282;2023-08-17T01:08:46;4.60;;;3.80;;
1366;SDS011;16877;48.810;9.282;2023-08-17T01:11:18;4.23;;;3.47;;
1366;SDS011;16877;48.810;9.282;2023-08-17T01:13:53;3.50;;;3.07;;
1366;SDS011;16877;48.810;9.282;2023-08-17T01:16:27;4.47;;;3.60;;
1366;SDS011;16877;48.810;9.282;2023-08-17T01:19:00;4.57;;;3.87;;
1366;SDS011;16877;48.810;9.282;2023-08-17T01:21:45;3.37;;;3.07;;
1366;SDS011;16877;48.810;9.282;2023-08-17T01:24:22;3.50;;;3.20;;
1366;SDS011;16877;48.810;9.282;2023-08-17T01:26:50;4.10;;;3.37;;
1366;SDS011;16877;48.810;9.282;2023-08-17T01:29:17;4.00;;;3.00;;
1366;SDS011;16877;48.810;9.282;2023-08-17T01:31:47;3.73;;;3.03;;
1366;SDS011;16877;48.810;9.282;2023-08-17T01:34:19;3.90;;;3.03;;
1366;SDS011;16877;48.810;9.282;2023-08-17T01:36:50;6.07;;;3.10;;
1366;SDS011;16877;48.810;9.282;2023-08-17T01:39:20;3.60;;;3.30;;
1366;SDS011;16877;48.810;9.282;2023-08-17T01:41:54;5.00;;;2.77;;
1366;SDS011;16877;48.810;9.282;2023-08-17T01:44:23;3.83;;;3.00;;
1366;SDS011;16877;48.810;9.282;2023-08-17T01:46:52;4.30;;;3.30;;
1366;SDS011;16877;48.810;9.282;2023-08-17T01:49:35;3.53;;;2.87;;
1366;SDS011;16877;48.810;9.282;2023-08-17T01:52:02;4.20;;;2.47;;
1366;SDS011;16877;48.810;9.282;2023-08-17T01:54:32;3.83;;;2.97;;
1366;SDS011;16877;48.810;9.282;2023-08-17T01:56:59;3.60;;;2.97;;
1366;SDS011;16877;48.810;9.282;2023-08-17T01:59:27;4.13;;;3.73;;
1366;SDS011;16877;48.810;9.282;2023-08-17T02:01:53;3.77;;;3.23;;
1366;SDS011;16877;48.810;9.282;2023-08-17T02:04:21;4.50;;;2.90;;
1366;SDS011;16877;48.810;9.282;2023-08-17T02:06:49;2.87;;;2.57;;
1366;SDS011;16877;48.810;9.282;2023-08-17T02:09:16;3.77;;;2.87;;
1366;SDS011;16877;48.810;9.282;2023-08-17T02:11:44;4.13;;;3.10;;
1366;SDS011;16877;48.810;9.282;2023-08-17T02:14:12;3.87;;;3.00;;
1366;SDS011;16877;48.810;9.282;2023-08-17T02:16:39;3.33;;;2.70;;
1366;SDS011;16877;48.810;9.282;2023-08-17T02:19:06;3.80;;;2.90;;
1366;SDS011;16877;48.810;9.282;2023-08-17T02:21:34;4.00;;;3.17;;
1366;SDS011;16877;48.810;9.282;2023-08-17T02:24:02;4.40;;;3.20;;
1366;SDS011;16877;48.810;9.282;2023-08-17T02:26:30;3.97;;;2.73;;
1366;SDS011;16877;48.810;9.282;2023-08-17T02:28:59;4.53;;;3.13;;
1366;SDS011;16877;48.810;9.282;2023-08-17T02:31:26;3.67;;;3.20;;
1366;SDS011;16877;48.810;9.282;2023-08-17T02:33:54;3.43;;;2.70;;
1366;SDS011;16877;48.810;9.282;2023-08-17T02:36:25;3.10;;;2.50;;
1366;SDS011;16877;48.810;9.282;2023-08-17T02:38:52;4.40;;;2.53;;
1366;SDS011;16877;48.810;9.282;2023-08-17T02:41:20;4.50;;;2.80;;
1366;SDS011;16877;48.810;9.282;2023-08-17T02:43:48;3.97;;;2.80;;
1366;SDS011;16877;48.810;9.282;2023-08-17T02:46:17;4.47;;;2.90;;
1366;SDS011;16877;48.810;9.282;2023-08-17T02:48:45;3.50;;;3.07;;
1366;SDS011;16877;48.810;9.282;2023-08-17T02:51:13;4.07;;;2.73;;
1366;SDS011;16877;48.810;9.282;2023-08-17T02:53:40;3.17;;;2.80;;
1366;SDS011;16877;48.810;9.282;2023-08-17T02:56:07;3.77;;;3.40;;
1366;SDS011;16877;48.810;9.282;2023-08-17T02:58:37;4.50;;;2.90;;
1366;SDS011;16877;48.810;9.282;2023-08-17T03:01:05;6.83;;;3.47;;
1366;SDS011;16877;48.810;9.282;2023-08-17T03:03:33;4.07;;;2.93;;
1366;SDS011;16877;48.810;9.282;2023-08-17T03:06:00;4.57;;;3.60;;
1366;SDS011;16877;48.810;9.282;2023-08-17T03:08:28;4.07;;;3.00;;
1366;SDS011;16877;48.810;9.282;2023-08-17T03:11:06;4.43;;;3.23;;
1366;SDS011;16877;48.810;9.282;2023-08-17T03:13:35;4.43;;;3.27;;
1366;SDS011;16877;48.810;9.282;2023-08-17T03:16:02;5.83;;;3.47;;
1366;SDS011;16877;48.810;9.282;2023-08-17T03:18:30;4.13;;;3.27;;
1366;SDS011;16877;48.810;9.282;2023-08-17T03:20:59;4.00;;;3.40;;
1366;SDS011;16877;48.810;9.282;2023-08-17T03:23:26;4.10;;;3.00;;
1366;SDS011;16877;48.810;9.282;2023-08-17T03:25:54;4.07;;;3.07;;
1366;SDS011;16877;48.810;9.282;2023-08-17T03:28:22;5.43;;;3.23;;
1366;SDS011;16877;48.810;9.282;2023-08-17T03:30:50;4.60;;;3.83;;
1366;SDS011;16877;48.810;9.282;2023-08-17T03:33:20;3.47;;;2.97;;
1366;SDS011;16877;48.810;9.282;2023-08-17T03:35:48;4.00;;;3.27;;
1366;SDS011;16877;48.810;9.282;2023-08-17T03:38:16;4.03;;;3.30;;
1366;SDS011;16877;48.810;9.282;2023-08-17T03:40:44;5.83;;;3.43;;
1366;SDS011;16877;48.810;9.282;2023-08-17T03:43:11;3.80;;;2.90;;
1366;SDS011;16877;48.810;9.282;2023-08-17T03:45:40;3.20;;;2.53;;
1366;SDS011;16877;48.810;9.282;2023-08-17T03:48:08;3.33;;;2.77;;
1366;SDS011;16877;48.810;9.282;2023-08-17T03:50:35;3.70;;;2.60;;
1366;SDS011;16877;48.810;9.282;2023-08-17T03:53:03;3.30;;;2.70;;
1366;SDS011;16877;48.810;9.282;2023-08-17T03:55:32;4.50;;;3.10;;
1366;SDS011;16877;48.810;9.282;2023-08-17T03:57:59;4.00;;;3.30;;
1366;SDS011;16877;48.810;9.282;2023-08-17T04:00:41;7.60;;;3.57;;
1366;SDS011;16877;48.810;9.282;2023-08-17T04:03:08;3.67;;;2.87;;
1366;SDS011;16877;48.810;9.282;2023-08-17T04:05:35;4.20;;;2.90;;
1366;SDS011;16877;48.810;9.282;2023-08-17T04:08:03;3.07;;;2.53;;
1366;SDS011;16877;48.810;9.282;2023-08-17T04:10:32;3.93;;;2.83;;
1366;SDS011;16877;48.810;9.282;2023-08-17T04:12:59;4.93;;;2.67;;
1366;SDS011;16877;48.810;9.282;2023-08-17T04:15:27;3.60;;;2.73;;
1366;SDS011;16877;48.810;9.282;2023-08-17T04:17:55;5.17;;;3.00;;
1366;SDS011;16877;48.810;9.282;2023-08-17T04:20:22;4.00;;;3.10;;
1366;SDS011;16877;48.810;9.282;2023-08-17T04:22:50;5.37;;;2.90;;
1366;SDS011;16877;48.810;9.282;2023-08-17T04:25:18;3.80;;;2.80;;
1366;SDS011;16877;48.810;9.282;2023-08-17T04:27:48;4.40;;;2.70;;
1366;SDS011;16877;48.810;9.282;2023-08-17T04:30:14;3.50;;;2.90;;
1366;SDS011;16877;48.810;9.282;2023-08-17T04:32:44;5.63;;;3.27;;
1366;SDS011;16877;48.810;9.282;2023-08-17T04:35:15;3.40;;;2.90;;
1366;SDS011;16877;48.810;9.282;2023-08-17T04:37:43;3.10;;;2.53;;
1366;SDS011;16877;48.810;9.282;2023-08-17T04:40:12;4.43;;;2.83;;
1366;SDS011;16877;48.810;9.282;2023-08-17T04:42:39;3.30;;;2.90;;
1366;SDS011;16877;48.810;9.282;2023-08-17T04:45:09;4.00;;;2.70;;
1366;SDS011;16877;48.810;9.282;2023-08-17T04:47:36;4.10;;;3.10;;
1366;SDS011;16877;48.810;9.282;2023-08-17T04:50:05;3.10;;;2.60;;
1366;SDS011;16877;48.810;9.282;2023-08-17T04:52:33;4.00;;;2.77;;
1366;SDS011;16877;48.810;9.282;2023-08-17T04:55:01;3.80;;;3.13;;
1366;SDS011;16877;48.810;9.282;2023-08-17T04:57:28;4.00;;;2.90;;
1366;SDS011;16877;48.810;9.282;2023-08-17T04:59:56;3.00;;;2.70;;
1366;SDS011;16877;48.810;9.282;2023-08-17T05:02:25;3.27;;;2.67;;
1366;SDS011;16877;48.810;9.282;2023-08-17T05:04:52;3.53;;;2.77;;
1366;SDS011;16877;48.810;9.282;2023-08-17T05:07:20;4.33;;;2.77;;
1366;SDS011;16877;48.810;9.282;2023-08-17T05:09:47;3.77;;;3.03;;
1366;SDS011;16877;48.810;9.282;2023-08-17T05:12:15;4.37;;;3.07;;
1366;SDS011;16877;48.810;9.282;2023-08-17T05:14:42;5.87;;;2.53;;
1366;SDS011;16877;48.810;9.282;2023-08-17T05:17:13;3.60;;;3.07;;
1366;SDS011;16877;48.810;9.282;2023-08-17T05:19:43;4.10;;;2.73;;
1366;SDS011;16877;48.810;9.282;2023-08-17T05:22:11;3.73;;;3.20;;
1366;SDS011;16877;48.810;9.282;2023-08-17T05:24:39;3.67;;;2.83;;
1366;SDS011;16877;48.810;9.282;2023-08-17T05:27:07;3.30;;;2.50;;
1366;SDS011;16877;48.810;9.282;2023-08-17T05:29:35;3.30;;;2.70;;
1366;SDS011;16877;48.810;9.282;2023-08-17T05:32:02;5.73;;;2.67;;
1366;SDS011;16877;48.810;9.282;2023-08-17T05:34:30;4.17;;;2.90;;
1366;SDS011;16877;48.810;9.282;2023-08-17T05:36:59;3.63;;;2.90;;
1366;SDS011;16877;48.810;9.282;2023-08-17T05:39:28;3.90;;;3.10;;
1366;SDS011;16877;48.810;9.282;2023-08-17T05:41:55;3.60;;;3.27;;
1366;SDS011;16877;48.810;9.282;2023-08-17T05:44:22;4.80;;;3.43;;
1366;SDS011;16877;48.810;9.282;2023-08-17T05:46:49;7.30;;;3.33;;
1366;SDS011;16877;48.810;9.282;2023-08-17T05:49:17;3.50;;;2.80;;
1366;SDS011;16877;48.810;9.282;2023-08-17T05:51:44;3.67;;;3.20;;
1366;SDS011;16877;48.810;9.282;2023-08-17T05:54:14;3.83;;;2.97;;
1366;SDS011;16877;48.810;9.282;2023-08-17T05:56:41;3.83;;;2.70;;
1366;SDS011;16877;48.810;9.282;2023-08-17T05:59:11;3.50;;;3.07;;
1366;SDS011;16877;48.810;9.282;2023-08-17T06:01:39;3.07;;;2.57;;
1366;SDS011;16877;48.810;9.282;2023-08-17T06:04:17;5.33;;;3.60;;
1366;SDS011;16877;48.810;9.282;2023-08-17T06:06:44;3.87;;;3.20;;
1366;SDS011;16877;48.810;9.282;2023-08-17T06:09:11;4.77;;;3.77;;
1366;SDS011;16877;48.810;9.282;2023-08-17T06:11:41;5.30;;;3.20;;
1366;SDS011;16877;48.810;9.282;2023-08-17T06:14:08;5.73;;;3.10;;
1366;SDS011;16877;48.810;9.282;2023-08-17T06:16:36;4.30;;;3.23;;
1366;SDS011;16877;48.810;9.282;2023-08-17T06:19:03;3.67;;;3.03;;
1366;SDS011;16877;48.810;9.282;2023-08-17T06:21:31;4.90;;;3.40;;
1366;SDS011;16877;48.810;9.282;2023-08-17T06:23:58;3.57;;;3.00;;
1366;SDS011;16877;48.810;9.282;2023-08-17T06:26:30;4.47;;;3.60;;
1366;SDS011;16877;48.810;9.282;2023-08-17T06:28:57;3.70;;;2.90;;
1366;SDS011;16877;48.810;9.282;2023-08-17T06:31:25;3.90;;;2.77;;
1366;SDS011;16877;48.810;9.282;2023-08-17T06:33:52;5.27;;;3.50;;
1366;SDS011;16877;48.810;9.282;2023-08-17T06:36:20;4.60;;;4.00;;
1366;SDS011;16877;48.810;9.282;2023-08-17T06:38:47;4.30;;;3.70;;
1366;SDS011;16877;48.810;9.282;2023-08-17T06:41:15;6.73;;;3.93;;
1366;SDS011;16877;48.810;9.282;2023-08-17T06:43:44;4.20;;;3.37;;
1366;SDS011;16877;48.810;9.282;2023-08-17T06:46:11;4.00;;;3.40;;
1366;SDS011;16877;48.810;9.282;2023-08-17T06:48:38;5.93;;;4.03;;
1366;SDS011;16877;48.810;9.282;2023-08-17T06:51:06;4.70;;;3.77;;
1366;SDS011;16877;48.810;9.282;2023-08-17T06:53:33;6.00;;;4.13;;
1366;SDS011;16877;48.810;9.282;2023-08-17T06:56:00;4.80;;;3.50;;
1366;SDS011;16877;48.810;9.282;2023-08-17T06:58:28;4.37;;;3.80;;
1366;SDS011;16877;48.810;9.282;2023-08-17T07:00:56;4.93;;;4.43;;
1366;SDS011;16877;48.810;9.282;2023-08-17T07:03:24;4.43;;;4.03;;
1366;SDS011;16877;48.810;9.282;2023-08-17T07:05:52;4.37;;;3.97;;
1366;SDS011;16877;48.810;9.282;2023-08-17T07:08:19;5.20;;;4.73;;
1366;SDS011;16877;48.810;9.282;2023-08-17T07:10:47;5.70;;;5.07;;
1366;SDS011;16877;48.810;9.282;2023-08-17T07:13:14;5.97;;;4.70;;
1366;SDS011;16877;48.810;9.282;2023-08-17T07:15:41;4.73;;;4.13;;
1366;SDS011;16877;48.810;9.282;2023-08-17T07:18:10;5.50;;;5.00;;
1366;SDS011;16877;48.810;9.282;2023-08-17T07:20:38;6.27;;;4.73;;
1366;SDS011;16877;48.810;9.282;2023-08-17T07:23:05;5.67;;;4.83;;
1366;SDS011;16877;48.810;9.282;2023-08-17T07:25:33;5.97;;;4.40;;
1366;SDS011;16877;48.810;9.282;2023-08-17T07:28:01;5.87;;;5.27;;
1366;SDS011;16877;48.810;9.282;2023-08-17T07:30:28;5.30;;;4.80;;
1366;SDS011;16877;48.810;9.282;2023-08-17T07:32:55;5.30;;;4.27;;
1366;SDS011;16877;48.810;9.282;2023-08-17T07:35:24;5.50;;;5.00;;
1366;SDS011;16877;48.810;9.282;2023-08-17T07:37:52;5.60;;;5.00;;
1366;SDS011;16877;48.810;9.282;2023-08-17T07:40:19;5.37;;;4.50;;
1366;SDS011;16877;48.810;9.282;2023-08-17T07:42:47;5.13;;;4.63;;
1366;SDS011;16877;48.810;9.282;2023-08-17T07:45:14;5.50;;;4.70;;
1366;SDS011;16877;48.810;9.282;2023-08-17T07:47:41;4.83;;;4.40;;
1366;SDS011;16877;48.810;9.282;2023-08-17T07:50:09;6.63;;;4.80;;
1366;SDS011;16877;48.810;9.282;2023-08-17T07:52:37;5.27;;;4.87;;
1366;SDS011;16877;48.810;9.282;2023-08-17T07:55:05;5.33;;;4.83;;
1366;SDS011;16877;48.810;9.282;2023-08-17T07:57:33;4.60;;;4.10;;
1366;SDS011;16877;48.810;9.282;2023-08-17T08:00:01;5.10;;;4.60;;
1366;SDS011;16877;48.810;9.282;2023-08-17T08:02:28;5.50;;;4.50;;
1366;SDS011;16877;48.810;9.282;2023-08-17T08:04:56;5.83;;;5.23;;
1366;SDS011;16877;48.810;9.282;2023-08-17T08:07:23;4.90;;;4.40;;
1366;SDS011;16877;48.810;9.282;2023-08-17T08:09:52;4.87;;;4.47;;
1366;SDS011;16877;48.810;9.282;2023-08-17T08:12:19;5.37;;;4.87;;
1366;SDS011;16877;48.810;9.282;2023-08-17T08:14:47;4.60;;;4.20;;
1366;SDS011;16877;48.810;9.282;2023-08-17T08:17:16;7.17;;;4.73;;
1366;SDS011;16877;48.810;9.282;2023-08-17T08:19:44;7.90;;;5.37;;
1366;SDS011;16877;48.810;9.282;2023-08-17T08:22:11;6.20;;;5.60;;
1366;SDS011;16877;48.810;9.282;2023-08-17T08:24:39;7.10;;;6.40;;
1366;SDS011;16877;48.810;9.282;2023-08-17T08:27:10;5.80;;;5.30;;
1366;SDS011;16877;48.810;9.282;2023-08-17T08:29:37;5.80;;;5.20;;
1366;SDS011;16877;48.810;9.282;2023-08-17T08:32:05;6.27;;;5.60;;
1366;SDS011;16877;48.810;9.282;2023-08-17T08:34:33;8.27;;;7.07;;
1366;SDS011;16877;48.810;9.282;2023-08-17T08:37:01;7.17;;;6.47;;
1366;SDS011;16877;48.810;9.282;2023-08-17T08:39:28;5.43;;;4.70;;
1366;SDS011;16877;48.810;9.282;2023-08-17T08:41:55;5.47;;;5.00;;
1366;SDS011;16877;48.810;9.282;2023-08-17T08:44:26;7.90;;;7.20;;
1366;SDS011;16877;48.810;9.282;2023-08-17T08:46:53;6.93;;;6.33;;
1366;SDS011;16877;48.810;9.282;2023-08-17T08:49:23;10.10;;;8.50;;
1366;SDS011;16877;48.810;9.282;2023-08-17T08:51:51;6.83;;;6.20;;
1366;SDS011;16877;48.810;9.282;2023-08-17T08:54:20;6.53;;;5.93;;
1366;SDS011;16877;48.810;9.282;2023-08-17T08:56:49;5.23;;;4.73;;
1366;SDS011;16877;48.810;9.282;2023-08-17T08:59:19;6.10;;;5.50;;
1366;SDS011;16877;48.810;9.282;2023-08-17T09:01:49;6.07;;;5.47;;
1366;SDS011;16877;48.810;9.282;2023-08-17T09:04:18;7.40;;;6.70;;
1366;SDS011;16877;48.810;9.282;2023-08-17T09:06:46;6.73;;;6.13;;
1366;SDS011;16877;48.810;9.282;2023-08-17T09:09:14;6.27;;;5.70;;
1366;SDS011;16877;48.810;9.282;2023-08-17T09:11:42;7.50;;;6.80;;
1366;SDS011;16877;48.810;9.282;2023-08-17T09:14:09;6.67;;;6.07;;
1366;SDS011;16877;48.810;9.282;2023-08-17T09:16:36;7.43;;;6.53;;
1366;SDS011;16877;48.810;9.282;2023-08-17T09:19:18;6.83;;;6.23;;
1366;SDS011;16877;48.810;9.282;2023-08-17T09:21:46;6.00;;;5.47;;
1366;SDS011;16877;48.810;9.282;2023-08-17T09:25:00;7.73;;;6.93;;
1366;SDS011;16877;48.810;9.282;2023-08-17T09:27:31;9.07;;;8.17;;
1366;SDS011;16877;48.810;9.282;2023-08-17T09:30:02;7.33;;;6.70;;
1366;SDS011;16877;48.810;9.282;2023-08-17T09:32:31;6.47;;;5.83;;
1366;SDS011;16877;48.810;9.282;2023-08-17T09:35:00;7.47;;;6.87;;
1366;SDS011;16877;48.810;9.282;2023-08-17T09:37:30;8.53;;;6.40;;
1366;SDS011;16877;48.810;9.282;2023-08-17T09:40:00;8.67;;;6.77;;
1366;SDS011;16877;48.810;9.282;2023-08-17T09:42:29;7.13;;;6.50;;
1366;SDS011;16877;48.810;9.282;2023-08-17T09:45:01;7.50;;;6.90;;
1366;SDS011;16877;48.810;9.282;2023-08-17T09:47:30;7.23;;;6.53;;
1366;SDS011;16877;48.810;9.282;2023-08-17T09:49:57;9.00;;;6.20;;
1366;SDS011;16877;48.810;9.282;2023-08-17T09:52:24;6.67;;;5.97;;
1366;SDS011;16877;48.810;9.282;2023-08-17T09:54:52;8.43;;;7.67;;
1366;SDS011;16877;48.810;9.282;2023-08-17T09:57:21;6.33;;;5.83;;
1366;SDS011;16877;48.810;9.282;2023-08-17T09:59:50;7.40;;;6.70;;
1366;SDS011;16877;48.810;9.282;2023-08-17T10:02:19;7.90;;;7.20;;
1366;SDS011;16877;48.810;9.282;2023-08-17T10:04:50;7.30;;;6.60;;
1366;SDS011;16877;48.810;9.282;2023-08-17T10:07:19;5.57;;;5.07;;
1366;SDS011;16877;48.810;9.282;2023-08-17T10:09:48;6.20;;;5.70;;
1366;SDS011;16877;48.810;9.282;2023-08-17T10:12:27;6.33;;;5.70;;
1366;SDS011;16877;48.810;9.282;2023-08-17T10:15:02;7.43;;;6.73;;
1366;SDS011;16877;48.810;9.282;2023-08-17T10:17:35;6.67;;;6.07;;
1366;SDS011;16877;48.810;9.282;2023-08-17T10:20:09;8.00;;;7.20;;
1366;SDS011;16877;48.810;9.282;2023-08-17T10:22:42;7.17;;;6.47;;
1366;SDS011;16877;48.810;9.282;2023-08-17T10:25:15;7.63;;;6.83;;
1366;SDS011;16877;48.810;9.282;2023-08-17T10:27:44;7.93;;;7.23;;
1366;SDS011;16877;48.810;9.282;2023-08-17T10:30:13;7.73;;;7.00;;
1366;SDS011;16877;48.810;9.282;2023-08-17T10:32:44;8.60;;;7.70;;
1366;SDS011;16877;48.810;9.282;2023-08-17T10:35:18;6.97;;;6.27;;
1366;SDS011;16877;48.810;9.282;2023-08-17T10:37:45;8.30;;;7.50;;
1366;SDS011;16877;48.810;9.282;2023-08-17T10:40:14;6.10;;;5.60;;
1366;SDS011;16877;48.810;9.282;2023-08-17T10:42:41;6.63;;;6.03;;
1366;SDS011;16877;48.810;9.282;2023-08-17T10:45:29;7.60;;;6.90;;
1366;SDS011;16877;48.810;9.282;2023-08-17T10:48:01;7.30;;;6.57;;
1366;SDS011;16877;48.810;9.282;2023-08-17T10:53:38;9.03;;;6.93;;
1366;SDS011;16877;48.810;9.282;2023-08-17T10:56:13;7.90;;;7.10;;
1366;SDS011;16877;48.810;9.282;2023-08-17T10:58:43;8.17;;;7.47;;
1366;SDS011;16877;48.810;9.282;2023-08-17T11:01:12;6.97;;;6.37;;
1366;SDS011;16877;48.810;9.282;2023-08-17T11:03:45;7.73;;;7.03;;
1366;SDS011;16877;48.810;9.282;2023-08-17T11:06:16;8.03;;;6.73;;
1366;SDS011;16877;48.810;9.282;2023-08-17T11:08:51;8.07;;;6.30;;
1366;SDS011;16877;48.810;9.282;2023-08-17T11:11:20;7.50;;;6.83;;
1366;SDS011;16877;48.810;9.282;2023-08-17T11:13:49;6.83;;;6.23;;
1366;SDS011;16877;48.810;9.282;2023-08-17T11:16:18;7.77;;;7.07;;
1366;SDS011;16877;48.810;9.282;2023-08-17T11:18:46;6.77;;;6.17;;
1366;SDS011;16877;48.810;9.282;2023-08-17T11:21:15;7.33;;;6.73;;
1366;SDS011;16877;48.810;9.282;2023-08-17T11:23:42;6.40;;;5.90;;
1366;SDS011;16877;48.810;9.282;2023-08-17T11:26:10;6.60;;;6.00;;
1366;SDS011;16877;48.810;9.282;2023-08-17T11:28:38;7.47;;;6.60;;
1366;SDS011;16877;48.810;9.282;2023-08-17T11:31:22;6.70;;;6.10;;
1366;SDS011;16877;48.810;9.282;2023-08-17T11:33:49;7.10;;;6.50;;
1366;SDS011;16877;48.810;9.282;2023-08-17T11:36:17;6.97;;;6.28;;
1366;SDS011;16877;48.810;9.282;2023-08-17T11:38:46;7.85;;;6.43;;
1366;SDS011;16877;48.810;9.282;2023-08-17T11:41:14;7.25;;;6.65;;
1366;SDS011;16877;48.810;9.282;2023-08-17T11:43:42;7.60;;;7.00;;
1366;SDS011;16877;48.810;9.282;2023-08-17T11:46:09;7.63;;;7.03;;
1366;SDS011;16877;48.810;9.282;2023-08-17T11:48:39;6.85;;;6.25;;
1366;SDS011;16877;48.810;9.282;2023-08-17T11:51:07;7.13;;;6.47;;
1366;SDS011;16877;48.810;9.282;2023-08-17T11:53:34;6.80;;;6.20;;
1366;SDS011;16877;48.810;9.282;2023-08-17T11:56:04;6.77;;;6.23;;
1366;SDS011;16877;48.810;9.282;2023-08-17T11:58:40;7.18;;;6.47;;
1366;SDS011;16877;48.810;9.282;2023-08-17T12:01:09;6.90;;;6.20;;
1366;SDS011;16877;48.810;9.282;2023-08-17T12:03:37;7.27;;;6.57;;
1366;SDS011;16877;48.810;9.282;2023-08-17T12:06:07;8.40;;;5.50;;
1366;SDS011;16877;48.810;9.282;2023-08-17T12:08:34;7.70;;;7.00;;
1366;SDS011;16877;48.810;9.282;2023-08-17T12:11:02;7.63;;;6.93;;
1366;SDS011;16877;48.810;9.282;2023-08-17T12:13:30;7.27;;;6.50;;
1366;SDS011;16877;48.810;9.282;2023-08-17T12:15:59;8.37;;;7.50;;
1366;SDS011;16877;48.810;9.282;2023-08-17T12:18:26;7.03;;;6.30;;
1366;SDS011;16877;48.810;9.282;2023-08-17T12:20:55;7.20;;;6.60;;
1366;SDS011;16877;48.810;9.282;2023-08-17T12:23:23;7.30;;;6.70;;
1366;SDS011;16877;48.810;9.282;2023-08-17T12:25:53;7.63;;;6.93;;
1366;SDS011;16877;48.810;9.282;2023-08-17T12:28:21;7.83;;;7.13;;
1366;SDS011;16877;48.810;9.282;2023-08-17T12:30:55;8.10;;;7.20;;
1366;SDS011;16877;48.810;9.282;2023-08-17T12:33:24;9.57;;;8.57;;
1366;SDS011;16877;48.810;9.282;2023-08-17T12:35:52;8.40;;;7.60;;
1366;SDS011;16877;48.810;9.282;2023-08-17T12:38:21;8.33;;;7.57;;
1366;SDS011;16877;48.810;9.282;2023-08-17T12:40:50;19.67;;;11.70;;
1366;SDS011;16877;48.810;9.282;2023-08-17T12:43:17;48.47;;;21.33;;
1366;SDS011;16877;48.810;9.282;2023-08-17T12:45:44;54.00;;;21.40;;
1366;SDS011;16877;48.810;9.282;2023-08-17T12:48:12;47.73;;;17.73;;
1366;SDS011;16877;48.810;9.282;2023-08-17T12:50:39;17.60;;;11.03;;
1366;SDS011;16877;48.810;9.282;2023-08-17T12:53:07;14.03;;;10.20;;
1366;SDS011;16877;48.810;9.282;2023-08-17T12:55:36;9.80;;;8.80;;
1366;SDS011;16877;48.810;9.282;2023-08-17T12:58:04;10.40;;;9.20;;
1366;SDS011;16877;48.810;9.282;2023-08-17T13:00:34;9.40;;;8.50;;
1366;SDS011;16877;48.810;9.282;2023-08-17T13:03:02;10.60;;;8.73;;
1366;SDS011;16877;48.810;9.282;2023-08-17T13:05:29;9.10;;;8.37;;
1366;SDS011;16877;48.810;9.282;2023-08-17T13:07:56;8.20;;;7.50;;
1366;SDS011;16877;48.810;9.282;2023-08-17T13:10:24;8.70;;;8.00;;
1366;SDS011;16877;48.810;9.282;2023-08-17T13:12:53;8.60;;;7.90;;
1366;SDS011;16877;48.810;9.282;2023-08-17T13:15:24;8.03;;;7.33;;
1366;SDS011;16877;48.810;9.282;2023-08-17T13:17:51;8.07;;;6.70;;
1366;SDS011;16877;48.810;9.282;2023-08-17T13:20:18;7.70;;;6.57;;
1366;SDS011;16877;48.810;9.282;2023-08-17T13:22:46;5.73;;;5.23;;
1366;SDS011;16877;48.810;9.282;2023-08-17T13:25:14;6.97;;;6.27;;
1366;SDS011;16877;48.810;9.282;2023-08-17T13:27:42;9.17;;;6.70;;
1366;SDS011;16877;48.810;9.282;2023-08-17T13:30:12;7.40;;;6.70;;
1366;SDS011;16877;48.810;9.282;2023-08-17T13:32:39;9.37;;;6.80;;
1366;SDS011;16877;48.810;9.282;2023-08-17T13:35:07;7.00;;;6.17;;
1366;SDS011;16877;48.810;9.282;2023-08-17T13:37:36;8.50;;;6.70;;
1366;SDS011;16877;48.810;9.282;2023-08-17T13:40:04;7.17;;;6.30;;
1366;SDS011;16877;48.810;9.282;2023-08-17T13:42:32;6.53;;;5.60;;
1366;SDS011;16877;48.810;9.282;2023-08-17T13:45:00;7.00;;;6.23;;
1366;SDS011;16877;48.810;9.282;2023-08-17T13:47:29;6.70;;;6.00;;
1366;SDS011;16877;48.810;9.282;2023-08-17T13:49:56;9.47;;;6.83;;
1366;SDS011;16877;48.810;9.282;2023-08-17T13:52:24;7.57;;;6.30;;
1366;SDS011;16877;48.810;9.282;2023-08-17T13:54:52;8.00;;;7.20;;
1366;SDS011;16877;48.810;9.282;2023-08-17T13:57:20;7.50;;;6.63;;
1366;SDS011;16877;48.810;9.282;2023-08-17T13:59:47;11.00;;;7.13;;
1366;SDS011;16877;48.810;9.282;2023-08-17T14:02:18;10.50;;;6.97;;
1366;SDS011;16877;48.810;9.282;2023-08-17T14:04:48;8.00;;;7.27;;
1366;SDS011;16877;48.810;9.282;2023-08-17T14:07:15;7.70;;;7.10;;
1366;SDS011;16877;48.810;9.282;2023-08-17T14:09:43;8.10;;;7.30;;
1366;SDS011;16877;48.810;9.282;2023-08-17T14:12:11;6.33;;;5.70;;
1366;SDS011;16877;48.810;9.282;2023-08-17T14:14:38;6.87;;;6.20;;
1366;SDS011;16877;48.810;9.282;2023-08-17T14:17:05;10.10;;;7.23;;
1366;SDS011;16877;48.810;9.282;2023-08-17T14:19:33;8.57;;;7.10;;
1366;SDS011;16877;48.810;9.282;2023-08-17T14:22:03;8.00;;;7.27;;
1366;SDS011;16877;48.810;9.282;2023-08-17T14:24:30;7.23;;;6.53;;
1366;SDS011;16877;48.810;9.282;2023-08-17T14:26:57;6.37;;;5.77;;
1366;SDS011;16877;48.810;9.282;2023-08-17T14:29:26;6.27;;;5.70;;
1366;SDS011;16877;48.810;9.282;2023-08-17T14:31:53;6.80;;;6.10;;
1366;SDS011;16877;48.810;9.282;2023-08-17T14:34:21;9.30;;;6.33;;
1366;SDS011;16877;48.810;9.282;2023-08-17T14:36:48;7.07;;;6.37;;
1366;SDS011;16877;48.810;9.282;2023-08-17T14:39:22;6.00;;;5.50;;
1366;SDS011;16877;48.810;9.282;2023-08-17T14:41:49;7.30;;;5.57;;
1366;SDS011;16877;48.810;9.282;2023-08-17T14:44:17;6.80;;;6.00;;
1366;SDS011;16877;48.810;9.282;2023-08-17T14:46:46;6.70;;;5.83;;
1366;SDS011;16877;48.810;9.282;2023-08-17T14:49:28;5.60;;;5.13;;
1366;SDS011;16877;48.810;9.282;2023-08-17T14:52:00;6.03;;;5.33;;
1366;SDS011;16877;48.810;9.282;2023-08-17T14:54:29;5.77;;;5.27;;
1366;SDS011;16877;48.810;9.282;2023-08-17T14:56:57;6.70;;;6.10;;
1366;SDS011;16877;48.810;9.282;2023-08-17T14:59:28;6.00;;;5.40;;
1366;SDS011;16877;48.810;9.282;2023-08-17T15:01:56;7.00;;;6.30;;
1366;SDS011;16877;48.810;9.282;2023-08-17T15:04:23;6.33;;;5.73;;
1366;SDS011;16877;48.810;9.282;2023-08-17T15:06:50;6.50;;;5.70;;
1366;SDS011;16877;48.810;9.282;2023-08-17T15:09:19;9.23;;;5.67;;
1366;SDS011;16877;48.810;9.282;2023-08-17T15:11:48;6.57;;;5.97;;
1366;SDS011;16877;48.810;9.282;2023-08-17T15:14:16;7.03;;;5.80;;